createdAt,value
2019-01-29T00:02:30.488Z,26.37
2019-01-29T00:05:00.217Z,22.63
2019-01-29T00:07:32.943Z,27.73
2019-01-29T00:10:02.489Z,22.10
2019-01-29T00:12:35.284Z,32.97
2019-01-29T00:15:07.739Z,23.40
2019-01-29T00:17:37.898Z,28.80
2019-01-29T00:20:08.099Z,28.90
2019-01-29T00:22:42.158Z,24.00
2019-01-29T00:25:12.098Z,23.23
2019-01-29T00:27:44.633Z,27.57
2019-01-29T00:30:14.540Z,21.17
2019-01-29T00:32:47.727Z,25.93
2019-01-29T00:35:17.407Z,29.53
2019-01-29T00:37:50.991Z,23.83
2019-01-29T00:40:21.147Z,25.07
2019-01-29T00:42:54.806Z,25.17
2019-01-29T00:45:24.528Z,24.20
2019-01-29T00:47:57.762Z,28.63
2019-01-29T00:50:27.495Z,27.90
2019-01-29T00:52:59.544Z,24.57
2019-01-29T00:55:29.502Z,26.90
2019-01-29T00:58:04.581Z,21.60
2019-01-29T01:00:34.293Z,27.87
2019-01-29T01:03:08.678Z,27.77
2019-01-29T01:05:38.358Z,25.20
2019-01-29T01:08:12.579Z,25.87
2019-01-29T01:10:42.271Z,25.00
2019-01-29T01:13:15.046Z,27.67
2019-01-29T01:15:44.763Z,25.57
2019-01-29T01:18:17.938Z,27.70
2019-01-29T01:20:49.960Z,21.83
2019-01-29T01:23:19.667Z,22.77
2019-01-29T01:25:49.338Z,23.83
2019-01-29T01:28:22.316Z,24.03
2019-01-29T01:30:51.315Z,25.40
2019-01-29T01:33:23.779Z,26.87
2019-01-29T01:35:53.755Z,20.60
2019-01-29T01:38:25.550Z,24.53
2019-01-29T01:40:55.225Z,21.63
2019-01-29T01:43:30.022Z,26.40
2019-01-29T01:45:59.738Z,26.60
2019-01-29T01:48:32.303Z,18.90
2019-01-29T01:51:02.767Z,23.30
2019-01-29T01:53:34.159Z,18.07
2019-01-29T01:56:04.549Z,18.23
2019-01-29T01:58:37.291Z,18.13
2019-01-29T02:01:07.172Z,18.10
2019-01-29T02:03:40.402Z,17.80
2019-01-29T02:06:10.586Z,16.20
2019-01-29T02:08:46.066Z,17.93
2019-01-29T02:11:15.738Z,18.70
2019-01-29T02:13:48.869Z,18.47
2019-01-29T02:16:18.575Z,17.80
2019-01-29T02:18:51.071Z,17.50
2019-01-29T02:21:20.899Z,16.13
2019-01-29T02:23:53.635Z,16.20
2019-01-29T02:26:22.915Z,18.30
2019-01-29T02:28:55.572Z,18.17
2019-01-29T02:31:25.257Z,19.13
2019-01-29T02:33:57.901Z,21.97
2019-01-29T02:36:27.620Z,15.63
2019-01-29T02:39:05.390Z,18.83
2019-01-29T02:41:34.727Z,17.50
2019-01-29T02:44:07.491Z,15.77
2019-01-29T02:46:37.214Z,23.37
2019-01-29T02:49:09.602Z,23.23
2019-01-29T02:51:39.312Z,17.97
2019-01-29T02:54:13.630Z,20.63
2019-01-29T02:56:43.583Z,22.97
2019-01-29T02:59:16.142Z,20.13
2019-01-29T03:01:45.830Z,17.60
2019-01-29T03:06:45.657Z,24.13
2019-01-29T03:09:25.006Z,23.67
2019-01-29T03:11:54.078Z,23.20
2019-01-29T03:14:23.095Z,26.87
2019-01-29T03:16:53.083Z,26.53
2019-01-29T03:19:25.569Z,29.17
2019-01-29T03:21:55.571Z,29.93
2019-01-29T03:24:27.363Z,30.83
2019-01-29T03:26:56.389Z,29.87
2019-01-29T03:29:32.007Z,29.03
2019-01-29T03:32:03.744Z,29.70
2019-01-29T03:34:33.783Z,29.10
2019-01-29T03:37:03.552Z,27.63
2019-01-29T03:39:36.502Z,35.93
2019-01-29T03:42:06.555Z,39.20
2019-01-29T03:44:38.455Z,28.97
2019-01-29T03:47:07.507Z,34.77
2019-01-29T03:49:42.772Z,31.57
2019-01-29T03:52:12.752Z,29.97
2019-01-29T03:54:44.612Z,29.60
2019-01-29T03:57:14.267Z,33.50
2019-01-29T03:59:47.074Z,30.07
2019-01-29T04:02:16.767Z,30.10
2019-01-29T04:04:50.454Z,28.87
2019-01-29T04:07:19.550Z,37.43
2019-01-29T04:09:53.112Z,35.07
2019-01-29T04:12:23.070Z,37.63
2019-01-29T04:14:57.890Z,29.83
2019-01-29T04:17:27.558Z,36.40
2019-01-29T04:19:59.663Z,28.60
2019-01-29T04:22:29.367Z,31.53
2019-01-29T04:25:03.270Z,33.57
2019-01-29T04:27:33.260Z,32.33
2019-01-29T04:30:08.868Z,33.23
2019-01-29T04:32:38.582Z,31.63
2019-01-29T04:35:11.675Z,23.20
2019-01-29T04:37:40.673Z,26.70
2019-01-29T04:40:14.924Z,19.60
2019-01-29T04:42:45.656Z,27.07
2019-01-29T04:45:18.684Z,26.27
2019-01-29T04:47:48.354Z,25.27
2019-01-29T04:50:22.803Z,24.73
2019-01-29T04:52:52.488Z,23.10
2019-01-29T04:55:21.604Z,28.33
2019-01-29T04:57:51.611Z,20.70
2019-01-29T05:00:23.973Z,23.53
2019-01-29T05:02:53.651Z,24.00
2019-01-29T05:05:26.079Z,21.47
2019-01-29T05:07:58.725Z,20.10
2019-01-29T05:10:27.722Z,26.83
2019-01-29T05:12:57.707Z,23.27
2019-01-29T05:15:30.931Z,20.20
2019-01-29T05:18:00.632Z,23.67
2019-01-29T05:20:33.434Z,22.37
2019-01-29T05:23:03.322Z,21.20
2019-01-29T05:25:38.031Z,23.47
2019-01-29T05:28:07.986Z,27.67
2019-01-29T05:30:40.054Z,24.47
2019-01-29T05:33:09.748Z,24.80
2019-01-29T05:35:43.015Z,20.47
2019-01-29T05:38:12.799Z,23.83
2019-01-29T05:40:47.489Z,27.43
2019-01-29T05:43:17.174Z,22.97
2019-01-29T05:45:48.624Z,20.90
2019-01-29T05:48:18.209Z,20.03
2019-01-29T05:50:52.229Z,26.47
2019-01-29T05:53:21.982Z,24.10
2019-01-29T05:55:54.000Z,26.23
2019-01-29T05:58:23.004Z,27.27
2019-01-29T06:01:00.495Z,29.07
2019-01-29T06:03:29.502Z,33.57
2019-01-29T06:06:04.005Z,30.07
2019-01-29T06:08:33.718Z,27.97
2019-01-29T06:11:04.849Z,30.70
2019-01-29T06:13:34.893Z,26.70
2019-01-29T06:16:07.119Z,34.70
2019-01-29T06:18:37.243Z,32.87
2019-01-29T06:21:12.114Z,34.13
2019-01-29T06:23:42.300Z,31.30
2019-01-29T06:26:15.747Z,27.57
2019-01-29T06:28:44.764Z,39.60
2019-01-29T06:31:17.811Z,31.27
2019-01-29T06:33:50.879Z,31.70
2019-01-29T06:36:20.575Z,46.03
2019-01-29T06:38:50.671Z,38.30
2019-01-29T06:41:23.295Z,34.67
2019-01-29T06:43:52.981Z,37.90
2019-01-29T06:46:25.492Z,33.60
2019-01-29T06:48:56.759Z,35.50
2019-01-29T06:51:26.261Z,36.63
2019-01-29T06:53:55.956Z,39.97
2019-01-29T06:56:28.059Z,41.93
2019-01-29T06:58:58.539Z,40.67
2019-01-29T07:01:31.816Z,39.53
2019-01-29T07:04:02.498Z,46.37
2019-01-29T07:06:34.626Z,50.33
2019-01-29T07:09:06.323Z,44.47
2019-01-29T07:11:38.978Z,46.30
2019-01-29T07:14:08.793Z,47.37
2019-01-29T07:16:56.524Z,48.33
2019-01-29T07:19:39.353Z,49.57
2019-01-29T07:22:09.080Z,49.87
2019-01-29T07:24:45.863Z,39.77
2019-01-29T07:27:18.234Z,44.13
2019-01-29T07:29:49.972Z,41.63
2019-01-29T07:32:19.692Z,47.40
2019-01-29T07:34:50.320Z,39.70
2019-01-29T07:37:22.071Z,46.97
2019-01-29T07:39:54.482Z,43.73
2019-01-29T07:42:24.438Z,42.33
2019-01-29T07:44:57.109Z,45.50
2019-01-29T07:47:26.811Z,37.77
2019-01-29T07:49:59.514Z,38.90
2019-01-29T07:52:29.215Z,36.13
2019-01-29T07:55:05.508Z,35.03
2019-01-29T07:57:35.507Z,33.10
2019-01-29T08:00:09.251Z,35.10
2019-01-29T08:02:38.252Z,32.37
2019-01-29T08:05:20.663Z,31.03
2019-01-29T08:07:50.950Z,32.30
2019-01-29T08:10:20.908Z,21.30
2019-01-29T08:12:50.614Z,29.73
2019-01-29T08:15:19.647Z,29.97
2019-01-29T08:17:49.438Z,30.77
2019-01-29T08:20:19.817Z,25.77
2019-01-29T08:22:49.774Z,26.00
2019-01-29T08:25:21.746Z,32.33
2019-01-29T08:27:50.787Z,26.30
2019-01-29T08:30:24.112Z,23.60
2019-01-29T08:32:53.884Z,21.50
2019-01-29T08:35:26.479Z,24.17
2019-01-29T08:37:56.195Z,17.53
2019-01-29T08:40:28.267Z,21.30
2019-01-29T08:42:58.236Z,23.07
2019-01-29T08:45:33.531Z,17.13
2019-01-29T08:48:05.479Z,17.53
2019-01-29T08:50:35.464Z,20.53
2019-01-29T08:53:05.956Z,15.20
2019-01-29T08:55:37.206Z,16.07
2019-01-29T08:58:07.167Z,11.30
2019-01-29T09:00:39.346Z,13.00
2019-01-29T09:03:09.090Z,12.87
2019-01-29T09:05:41.630Z,14.87
2019-01-29T09:08:10.831Z,15.73
2019-01-29T09:10:45.746Z,9.47
2019-01-29T09:13:15.448Z,11.97
2019-01-29T09:15:49.289Z,10.07
2019-01-29T09:18:19.108Z,9.77
2019-01-29T09:20:55.374Z,12.43
2019-01-29T09:23:25.371Z,15.27
2019-01-29T09:25:55.082Z,12.90
2019-01-29T09:28:24.790Z,10.70
2019-01-29T09:30:57.959Z,13.53
2019-01-29T09:33:28.767Z,10.77
2019-01-29T09:36:01.291Z,10.23
2019-01-29T09:38:31.447Z,7.20
2019-01-29T09:41:07.291Z,9.30
2019-01-29T09:43:36.563Z,8.60
2019-01-29T09:46:08.086Z,8.80
2019-01-29T09:48:38.086Z,9.13
2019-01-29T09:51:11.607Z,7.03
2019-01-29T09:53:41.403Z,9.80
2019-01-29T09:56:14.484Z,6.77
2019-01-29T09:58:44.567Z,7.03
2019-01-29T10:01:24.671Z,6.30
2019-01-29T10:03:54.650Z,7.37
2019-01-29T10:06:24.336Z,10.23
2019-01-29T10:08:54.031Z,5.53
2019-01-29T10:11:23.738Z,9.93
2019-01-29T10:13:53.455Z,8.27
2019-01-29T10:16:26.520Z,7.73
2019-01-29T10:18:56.982Z,7.90
2019-01-29T10:21:28.436Z,4.67
2019-01-29T10:23:57.733Z,8.27
2019-01-29T10:26:29.589Z,5.27
2019-01-29T10:28:59.284Z,3.97
2019-01-29T10:31:33.249Z,8.43
2019-01-29T10:34:04.798Z,5.40
2019-01-29T10:36:36.471Z,5.77
2019-01-29T10:39:10.404Z,5.20
2019-01-29T10:41:39.431Z,5.00
2019-01-29T10:44:09.205Z,10.60
2019-01-29T10:46:42.273Z,7.47
2019-01-29T10:49:12.087Z,4.90
2019-01-29T10:51:45.476Z,6.20
2019-01-29T10:54:15.359Z,5.73
2019-01-29T10:56:48.465Z,6.87
2019-01-29T10:59:18.771Z,6.00
2019-01-29T11:01:51.068Z,4.70
2019-01-29T11:04:20.986Z,6.50
2019-01-29T11:06:56.489Z,4.40
2019-01-29T11:09:26.217Z,2.60
2019-01-29T11:11:57.827Z,9.03
2019-01-29T11:14:27.578Z,4.73
2019-01-29T11:17:00.428Z,6.17
2019-01-29T11:19:30.438Z,4.33
2019-01-29T11:22:05.303Z,3.43
2019-01-29T11:24:35.119Z,5.07
2019-01-29T11:27:08.934Z,5.57
2019-01-29T11:29:37.952Z,5.00
2019-01-29T11:32:10.914Z,3.80
2019-01-29T11:34:40.649Z,3.67
2019-01-29T11:37:16.378Z,5.20
2019-01-29T11:39:46.557Z,5.40
2019-01-29T11:42:16.577Z,4.83
2019-01-29T11:44:46.269Z,4.53
2019-01-29T11:47:19.235Z,5.93
2019-01-29T11:49:48.948Z,7.93
2019-01-29T11:52:24.238Z,6.20
2019-01-29T11:54:54.231Z,7.23
2019-01-29T11:57:24.551Z,7.43
2019-01-29T11:59:54.363Z,10.00
2019-01-29T12:02:28.759Z,8.53
2019-01-29T12:04:58.532Z,9.53
2019-01-29T12:07:29.865Z,5.27
2019-01-29T12:09:59.559Z,5.70
2019-01-29T12:12:32.550Z,4.40
2019-01-29T12:15:06.550Z,7.20
2019-01-29T12:17:36.366Z,3.87
2019-01-29T12:20:06.709Z,5.30
2019-01-29T12:22:38.355Z,5.73
2019-01-29T12:25:13.234Z,5.57
2019-01-29T12:27:43.576Z,4.73
2019-01-29T12:30:17.139Z,6.07
2019-01-29T12:32:47.257Z,4.07
2019-01-29T12:35:17.173Z,8.83
2019-01-29T12:37:48.321Z,6.23
2019-01-29T12:40:17.584Z,6.00
2019-01-29T12:42:51.145Z,5.90
2019-01-29T12:45:20.743Z,5.07
2019-01-29T12:47:56.143Z,6.10
2019-01-29T12:50:28.151Z,9.77
2019-01-29T12:53:16.630Z,4.57
2019-01-29T12:55:46.384Z,6.13
2019-01-29T12:58:16.879Z,5.80
2019-01-29T13:00:49.511Z,4.80
2019-01-29T13:03:19.299Z,4.27
2019-01-29T13:05:49.386Z,8.30
2019-01-29T13:08:19.534Z,5.13
2019-01-29T13:10:49.244Z,5.50
2019-01-29T13:13:18.611Z,4.80
2019-01-29T13:15:48.450Z,6.77
2019-01-29T13:18:18.807Z,7.77
2019-01-29T13:20:48.847Z,4.27
2019-01-29T13:23:18.628Z,7.77
2019-01-29T13:25:48.307Z,7.13
2019-01-29T13:28:18.069Z,6.13
2019-01-29T13:30:47.781Z,6.30
2019-01-29T13:33:20.122Z,7.43
2019-01-29T13:35:50.116Z,5.37
2019-01-29T13:38:24.689Z,6.03
2019-01-29T13:40:54.750Z,4.83
2019-01-29T13:43:24.828Z,5.13
2019-01-29T13:45:54.564Z,5.93
2019-01-29T13:48:29.986Z,4.33
2019-01-29T13:51:01.452Z,9.03
2019-01-29T13:53:30.469Z,3.83
2019-01-29T13:55:59.971Z,5.40
2019-01-29T13:58:35.510Z,6.73
2019-01-29T14:01:07.052Z,7.77
2019-01-29T14:03:37.242Z,5.70
2019-01-29T14:06:06.337Z,7.10
2019-01-29T14:08:40.840Z,7.60
2019-01-29T14:11:10.608Z,8.90
2019-01-29T14:13:41.783Z,7.40
2019-01-29T14:16:13.874Z,6.37
2019-01-29T14:18:46.146Z,6.23
2019-01-29T14:21:16.079Z,4.33
2019-01-29T14:23:48.433Z,11.10
2019-01-29T14:26:18.432Z,13.73
2019-01-29T14:28:52.457Z,8.17
2019-01-29T14:31:22.883Z,6.97
2019-01-29T14:33:56.240Z,7.47
2019-01-29T14:36:25.382Z,6.77
2019-01-29T14:39:17.746Z,6.77
2019-01-29T14:41:47.447Z,8.67
2019-01-29T14:44:23.911Z,6.10
2019-01-29T14:49:21.764Z,6.10
2019-01-29T14:51:51.788Z,9.03
2019-01-29T14:54:21.996Z,7.73
2019-01-29T14:56:56.950Z,7.60
2019-01-29T14:59:23.667Z,6.27
2019-01-29T15:01:53.652Z,7.37
2019-01-29T15:04:24.543Z,9.40
2019-01-29T15:06:54.339Z,9.03
2019-01-29T15:09:24.005Z,6.97
2019-01-29T15:11:55.260Z,8.17
2019-01-29T15:14:26.374Z,6.97
2019-01-29T15:17:18.711Z,5.40
2019-01-29T15:19:49.220Z,7.93
2019-01-29T15:22:25.555Z,10.70
2019-01-29T15:24:55.603Z,10.13
2019-01-29T15:27:25.464Z,13.50
2019-01-29T15:29:55.346Z,10.80
2019-01-29T15:32:28.566Z,9.63
2019-01-29T15:34:58.282Z,13.40
2019-01-29T15:37:31.331Z,10.40
2019-01-29T15:40:01.432Z,12.63
2019-01-29T15:42:33.971Z,9.30
2019-01-29T15:45:05.794Z,11.40
2019-01-29T15:47:35.876Z,11.07
2019-01-29T15:50:06.563Z,8.70
2019-01-29T15:52:38.858Z,15.10
2019-01-29T15:55:10.479Z,11.20
2019-01-29T15:57:41.681Z,10.00
2019-01-29T16:00:16.184Z,8.80
2019-01-29T16:02:45.935Z,10.77
2019-01-29T16:05:17.921Z,10.67
2019-01-29T16:07:47.632Z,10.97
2019-01-29T16:10:19.875Z,10.73
2019-01-29T16:12:51.148Z,12.67
2019-01-29T16:15:21.754Z,12.53
2019-01-29T16:17:57.495Z,11.03
2019-01-29T16:20:26.996Z,12.77
2019-01-29T16:22:56.356Z,10.57
2019-01-29T16:25:28.039Z,14.20
2019-01-29T16:27:59.700Z,15.70
2019-01-29T16:30:40.166Z,12.97
2019-01-29T16:33:14.270Z,8.27
2019-01-29T16:35:44.495Z,12.27
2019-01-29T16:38:15.891Z,11.97
2019-01-29T16:40:46.452Z,13.80
2019-01-29T16:43:16.204Z,17.67
2019-01-29T16:45:46.037Z,11.07
2019-01-29T16:48:15.832Z,9.77
2019-01-29T16:50:45.576Z,13.10
2019-01-29T16:53:15.858Z,14.20
2019-01-29T16:55:45.357Z,15.53
2019-01-29T16:58:19.735Z,23.10
2019-01-29T17:00:49.472Z,14.50
2019-01-29T17:03:21.735Z,26.33
2019-01-29T17:05:54.630Z,43.20
2019-01-29T17:08:24.347Z,13.33
2019-01-29T17:10:54.651Z,149.80
2019-01-29T17:13:27.579Z,32.23
2019-01-29T17:15:57.065Z,33.20
2019-01-29T17:18:29.594Z,27.70
2019-01-29T17:21:00.260Z,37.77
2019-01-29T17:23:34.219Z,31.50
2019-01-29T17:26:04.390Z,43.83
2019-01-29T17:28:34.577Z,70.27
2019-01-29T17:31:04.288Z,16.80
2019-01-29T17:33:37.036Z,20.73
2019-01-29T17:36:07.243Z,9.83
2019-01-29T17:38:44.480Z,12.23
2019-01-29T17:41:09.919Z,17.97
2019-01-29T17:43:42.806Z,13.27
2019-01-29T17:46:12.555Z,15.37
2019-01-29T17:48:46.108Z,30.90
2019-01-29T17:51:18.068Z,14.57
2019-01-29T17:53:47.980Z,14.33
2019-01-29T17:56:18.221Z,18.03
2019-01-29T17:58:51.668Z,13.13
2019-01-29T18:01:26.759Z,12.03
2019-01-29T18:04:04.279Z,12.03
2019-01-29T18:06:34.418Z,11.30
2019-01-29T18:09:06.875Z,10.70
2019-01-29T18:11:35.879Z,12.17
2019-01-29T18:14:06.529Z,9.43
2019-01-29T18:16:35.657Z,10.93
2019-01-29T18:19:06.012Z,14.27
2019-01-29T18:21:36.891Z,10.87
2019-01-29T18:24:07.831Z,10.13
2019-01-29T18:26:39.812Z,14.10
2019-01-29T18:29:13.123Z,13.27
2019-01-29T18:31:42.933Z,14.53
2019-01-29T18:34:15.701Z,13.03
2019-01-29T18:36:45.423Z,11.83
2019-01-29T18:39:21.072Z,8.83
2019-01-29T18:41:51.794Z,16.60
2019-01-29T18:44:21.007Z,12.80
2019-01-29T18:46:51.412Z,17.33
2019-01-29T18:49:22.224Z,14.77
2019-01-29T18:51:51.911Z,11.77
2019-01-29T18:54:25.896Z,9.70
2019-01-29T18:56:57.369Z,9.07
2019-01-29T18:59:29.988Z,13.57
2019-01-29T19:02:01.151Z,9.57
2019-01-29T19:04:30.355Z,11.50
2019-01-29T19:06:59.858Z,10.10
2019-01-29T19:09:35.315Z,9.07
2019-01-29T19:14:26.611Z,13.27
2019-01-29T19:16:55.778Z,13.90
2019-01-29T19:19:26.871Z,16.90
2019-01-29T19:21:58.613Z,14.73
2019-01-29T19:24:28.548Z,14.33
2019-01-29T19:26:58.778Z,9.80
2019-01-29T19:29:28.602Z,17.80
2019-01-29T19:31:58.267Z,13.97
2019-01-29T19:34:27.886Z,10.43
2019-01-29T19:36:58.323Z,14.73
2019-01-29T19:39:27.319Z,13.13
2019-01-29T19:41:57.641Z,13.13
2019-01-29T19:44:28.646Z,12.97
2019-01-29T19:46:58.496Z,15.67
2019-01-29T19:49:30.583Z,10.47
2019-01-29T19:52:00.225Z,11.70
2019-01-29T19:54:29.940Z,9.03
2019-01-29T19:57:02.468Z,11.20
2019-01-29T19:59:31.511Z,11.50
2019-01-29T20:02:05.652Z,16.17
2019-01-29T20:04:35.926Z,11.73
2019-01-29T20:07:08.255Z,25.17
2019-01-29T20:09:37.975Z,13.63
2019-01-29T20:12:12.519Z,10.63
2019-01-29T20:14:42.336Z,14.73
2019-01-29T20:17:17.686Z,19.23
2019-01-29T20:19:47.401Z,29.40
2019-01-29T20:22:17.280Z,21.37
2019-01-29T20:24:47.243Z,21.97
2019-01-29T20:27:20.250Z,15.63
2019-01-29T20:29:49.935Z,20.37
2019-01-29T20:32:23.696Z,21.17
2019-01-29T20:34:54.783Z,19.93
2019-01-29T20:37:24.526Z,15.07
2019-01-29T20:39:53.532Z,15.13
2019-01-29T20:42:29.455Z,13.47
2019-01-29T20:44:59.134Z,14.73
2019-01-29T20:47:31.896Z,19.27
2019-01-29T20:50:01.724Z,20.00
2019-01-29T20:52:33.106Z,21.13
2019-01-29T20:55:02.403Z,19.07
2019-01-29T20:57:35.266Z,14.03
2019-01-29T21:00:07.722Z,15.87
2019-01-29T21:02:38.759Z,13.80
2019-01-29T21:05:08.896Z,13.07
2019-01-29T21:07:41.666Z,12.50
2019-01-29T21:10:14.204Z,12.00
2019-01-29T21:12:44.125Z,10.37
2019-01-29T21:15:15.043Z,12.77
2019-01-29T21:17:47.807Z,12.27
2019-01-29T21:20:22.482Z,12.80
2019-01-29T21:22:52.451Z,11.93
2019-01-29T21:25:21.455Z,10.87
2019-01-29T21:27:54.824Z,11.07
2019-01-29T21:30:44.038Z,9.73
2019-01-29T21:33:14.100Z,10.57
2019-01-29T21:35:45.063Z,12.03
2019-01-29T21:38:14.775Z,10.83
2019-01-29T21:40:44.513Z,13.20
2019-01-29T21:43:14.591Z,13.27
2019-01-29T21:45:44.275Z,10.43
2019-01-29T21:48:13.989Z,11.40
2019-01-29T21:50:43.945Z,12.67
2019-01-29T21:53:14.616Z,12.60
2019-01-29T21:55:45.547Z,12.90
2019-01-29T21:58:15.521Z,13.50
2019-01-29T22:00:46.297Z,8.53
2019-01-29T22:03:15.720Z,9.23
2019-01-29T22:05:45.842Z,11.53
2019-01-29T22:08:17.714Z,9.70
2019-01-29T22:10:47.448Z,10.80
2019-01-29T22:13:20.867Z,11.10
2019-01-29T22:15:50.538Z,8.87
2019-01-29T22:18:23.484Z,11.50
2019-01-29T22:20:53.862Z,8.97
2019-01-29T22:23:25.231Z,8.60
2019-01-29T22:25:56.147Z,10.77
2019-01-29T22:28:29.371Z,7.70
2019-01-29T22:30:59.307Z,9.10
2019-01-29T22:33:31.857Z,8.70
2019-01-29T22:36:02.206Z,7.97
2019-01-29T22:38:33.248Z,8.83
2019-01-29T22:41:02.381Z,6.33
2019-01-29T22:43:36.637Z,8.60
2019-01-29T22:46:06.488Z,7.23
2019-01-29T22:48:38.350Z,9.90
2019-01-29T22:51:08.143Z,10.60
2019-01-29T22:53:42.467Z,9.40
2019-01-29T22:56:12.671Z,9.63
2019-01-29T22:58:45.430Z,6.87
2019-01-29T23:01:32.807Z,8.67
2019-01-29T23:04:14.673Z,11.03
2019-01-29T23:07:02.686Z,14.87
2019-01-29T23:09:32.622Z,11.97
2019-01-29T23:12:01.807Z,20.80
2019-01-29T23:14:30.911Z,10.77
2019-01-29T23:16:59.952Z,13.40
2019-01-29T23:19:29.331Z,16.47
2019-01-29T23:22:00.399Z,19.20
2019-01-29T23:24:30.302Z,14.13
2019-01-29T23:27:02.893Z,11.57
2019-01-29T23:29:32.651Z,12.83
2019-01-29T23:32:06.872Z,15.33
2019-01-29T23:34:37.312Z,13.67
2019-01-29T23:37:11.028Z,16.43
2019-01-29T23:39:40.903Z,12.80
2019-01-29T23:42:13.901Z,19.80
2019-01-29T23:44:43.731Z,18.87
2019-01-29T23:47:15.589Z,14.40
2019-01-29T23:49:45.547Z,14.83
2019-01-29T23:52:18.019Z,11.90
2019-01-29T23:54:47.962Z,13.50
2019-01-29T23:57:21.244Z,17.23
2019-01-29T23:59:53.771Z,19.87
